Flight Track Log - Related Links

Times and Time Zones

All times are in EDT time to prevent confusion due to time zone crossing. See the UAL4295 flight status page for this flight to view local times or setup timezone preferences in your user account.

Time Position Orientation Groundspeed Altitude Reporting Facility
EDT Latitude Longitude Course Direction KTS MPH feet Rate Location/Type
Tue 09:12:57 PM 40.7167 -74.1500 276° West 159 183 1,100  Level New York TRACON
Tue 09:13:57 PM 40.7500 -74.1167 37° Northeast 184 212 3,200 2,000 Climbing New York TRACON
Tue 09:14:57 PM 40.7833 -74.1667 311° West 254 292 5,100 2,250 Climbing New York TRACON
Tue 09:15:00 PM 40.7345 -74.5298 277° West  Level FlightAware Approximate
Tue 09:15:57 PM 40.7833 -74.2667 270° West 269 310 7,700  Level New York TRACON
Tue 09:16:00 PM 40.7461 -74.6571 277° West  Level FlightAware Approximate
Tue 09:16:57 PM 40.7833 -74.3667 270° West 272 313 10,200  Level New York TRACON
Tue 09:17:00 PM 40.7565 -74.7845 276° West  Level FlightAware Approximate
Tue 09:17:58 PM 40.8167 -74.4667 294° West 302 348 11,200  Level New York TRACON
Tue 09:18:00 PM 40.7663 -74.9121 276° West  Level FlightAware Approximate
Tue 09:18:58 PM 40.8500 -74.5667 294° West 333 383 12,800  Level New York TRACON
Tue 09:20:04 PM 40.8947 -74.6828 297° West 352 405 14,400 1,512 Climbing New York Center
Tue 09:21:05 PM 40.8881 -74.8197 266° West 344 396 16,000 1,488 Climbing New York Center
Tue 09:22:05 PM 40.8544 -74.9467 251° West 353 406 17,400 1,179 Climbing New York Center
Tue 09:23:02 PM 40.8186 -75.0733 250° West 358 412 18,300 1,220 Climbing New York Center
Tue 09:24:03 PM 40.7853 -75.1836 248° West 367 422 19,800 1,426 Climbing New York Center
Tue 09:25:04 PM 40.7433 -75.3042 245° Southwest 367 422 21,200 1,180 Climbing New York Center
Tue 09:26:05 PM 40.7028 -75.4328 247° West 367 422 22,200 1,008 Climbing New York Center
Tue 09:27:03 PM 40.6581 -75.5667 246° West 388 447 23,200 1,210 Climbing New York Center
Tue 09:28:04 PM 40.6150 -75.6975 247° West 400 460 24,600 1,438 Climbing New York Center
Tue 09:29:04 PM 40.5719 -75.8283 247° West 400 460 26,100 1,650 Climbing New York Center
Tue 09:30:04 PM 40.5225 -75.9639 244° Southwest 389 448 27,900 1,686 Climbing New York Center
Tue 09:31:05 PM 40.4817 -76.0836 246° West 372 428 29,500 1,627 Climbing New York Center
Tue 09:32:02 PM 40.4431 -76.1953 246° West 360 414 31,100 1,475 Climbing New York Center
Tue 09:33:03 PM 40.4089 -76.3072 248° West 344 396 32,400 1,140 Climbing New York Center
Tue 09:34:03 PM 40.3706 -76.4103 244° Southwest 333 383 33,400 793 Climbing New York Center
Tue 09:35:04 PM 40.3319 -76.5214 246° West 333 383 34,000 295 Climbing New York Center
Tue 09:36:05 PM 40.2892 -76.6269 242° Southwest 333 383 34,000  Level New York Center
Tue 09:37:03 PM 40.2417 -76.7425 242° Southwest 343 395 34,000  Level New York Center
Tue 09:38:04 PM 40.1914 -76.8714 243° Southwest 374 430 34,000  Level New York Center
Tue 09:39:05 PM 40.1428 -77.0028 244° Southwest 397 457 34,000  Level New York Center
Tue 09:40:05 PM 40.1311 -77.1431 264° West 386 444 34,000  Level New York Center
Tue 09:41:03 PM 40.1339 -77.2819 272° West 392 451 34,000  Level New York Center
Tue 09:44:50 PM 40.1250 -77.8108 269° West 394 453 34,000  Level Cleveland Center
Tue 09:45:50 PM 40.1183 -77.9686 267° West 404 465 34,000  Level Cleveland Center
Tue 09:46:50 PM 40.1133 -78.1128 267° West 404 465 34,000  Level Cleveland Center
Tue 09:47:50 PM 40.1100 -78.2539 268° West 404 465 34,000  Level Cleveland Center
Tue 09:48:50 PM 40.1067 -78.3953 268° West 404 465 34,000  Level Cleveland Center
Tue 09:49:50 PM 40.1031 -78.5364 268° West 404 465 34,000  Level Cleveland Center
Tue 09:50:50 PM 40.0972 -78.6806 267° West 404 465 34,000  Level Cleveland Center
Tue 09:51:50 PM 40.0933 -78.8244 268° West 404 465 34,000  Level Cleveland Center
Tue 09:52:50 PM 40.0892 -78.9658 268° West 404 465 34,000  Level Cleveland Center
Tue 09:53:50 PM 40.0847 -79.1069 268° West 404 465 34,000  Level Cleveland Center
Tue 09:54:50 PM 40.0803 -79.2481 268° West 404 465 34,000  Level Cleveland Center
Tue 09:55:50 PM 40.0794 -79.3783 270° West 404 465 34,000  Level Cleveland Center
Tue 09:56:50 PM 40.0747 -79.5194 268° West 404 465 34,000  Level Cleveland Center
Tue 09:57:50 PM 40.0697 -79.6633 267° West 404 465 34,000  Level Cleveland Center
Tue 09:58:50 PM 40.0625 -79.8181 267° West 404 465 34,000  Level Cleveland Center
Tue 09:59:50 PM 40.0572 -79.9619 267° West 404 465 34,000  Level Cleveland Center
Tue 10:00:50 PM 40.0517 -80.1031 267° West 404 465 34,000  Level Cleveland Center
Tue 10:01:50 PM 40.0458 -80.2442 267° West 404 465 34,000  Level Cleveland Center
Tue 10:02:50 PM 40.0400 -80.3850 267° West 404 465 34,000  Level Cleveland Center
Tue 10:03:50 PM 40.0339 -80.5289 267° West 404 465 34,000  Level Cleveland Center
Tue 10:04:50 PM 40.0256 -80.6697 266° West 404 465 34,000  Level Cleveland Center
Tue 10:05:50 PM 40.0211 -80.8108 268° West 404 465 34,000  Level Cleveland Center
Tue 10:08:01 PM 40.0125 -81.1058 268° West 393 452 34,000  Level Indianapolis Center
Tue 10:09:02 PM 40.0103 -81.2486 269° West 391 450 34,000  Level Indianapolis Center
Tue 10:10:04 PM 40.0081 -81.3911 269° West 389 448 34,000  Level Indianapolis Center
Tue 10:11:05 PM 40.0053 -81.5356 269° West 392 451 34,000  Level Indianapolis Center
Tue 10:12:06 PM 40.0022 -81.6794 268° West 393 452 34,000  Level Indianapolis Center
Tue 10:13:08 PM 39.9978 -81.8394 268° West 393 452 34,000  Level Indianapolis Center
Tue 10:14:09 PM 39.9953 -81.9836 269° West 393 452 34,000 -49 Level Indianapolis Center
Tue 10:15:10 PM 39.9919 -82.1269 268° West 394 453 33,900  Descending Indianapolis Center
Tue 10:16:11 PM 39.9889 -82.2703 268° West 392 451 34,000 49 Climbing Indianapolis Center
Tue 10:17:13 PM 39.9853 -82.4156 268° West 396 456 34,000  Level Indianapolis Center
Tue 10:18:14 PM 39.9808 -82.5583 268° West 392 451 34,000  Level Indianapolis Center
Tue 10:19:15 PM 39.9772 -82.7006 268° West 392 451 34,000  Level Indianapolis Center
Tue 10:20:16 PM 39.9728 -82.8428 268° West 390 449 34,000  Level Indianapolis Center
Tue 10:21:18 PM 39.9678 -82.9850 267° West 391 450 34,000  Level Indianapolis Center
Tue 10:22:19 PM 39.9644 -83.1269 268° West 391 450 34,000  Level Indianapolis Center
Tue 10:23:20 PM 39.9597 -83.2925 268° West 391 450 34,000  Level Indianapolis Center
Tue 10:24:22 PM 39.9561 -83.4350 268° West 396 456 34,000  Level Indianapolis Center
Tue 10:25:23 PM 39.9503 -83.5767 267° West 397 457 34,000  Level Indianapolis Center
Tue 10:26:24 PM 39.9444 -83.7175 267° West 393 452 34,000  Level Indianapolis Center
Tue 10:27:26 PM 39.9397 -83.8597 268° West 393 452 34,000  Level Indianapolis Center
Tue 10:28:27 PM 39.9339 -84.0022 267° West 392 451 34,000  Level Indianapolis Center
Tue 10:29:28 PM 39.9283 -84.1439 267° West 391 450 34,000  Level Indianapolis Center
Tue 10:30:30 PM 39.9219 -84.2847 267° West 388 447 34,000  Level Indianapolis Center
Tue 10:31:31 PM 39.9169 -84.4261 267° West 388 447 34,000  Level Indianapolis Center
Tue 10:32:32 PM 39.9081 -84.5911 266° West 390 449 34,000  Level Indianapolis Center
Tue 10:33:34 PM 39.9019 -84.7319 267° West 388 447 34,000  Level Indianapolis Center
Tue 10:34:35 PM 39.8942 -84.8736 266° West 390 449 34,000  Level Indianapolis Center
Tue 10:35:36 PM 39.8883 -85.0172 267° West 391 450 34,000  Level Indianapolis Center
Tue 10:36:37 PM 39.8808 -85.1583 266° West 389 448 34,000  Level Indianapolis Center
Tue 10:37:39 PM 39.8736 -85.2967 266° West 385 443 34,000  Level Indianapolis Center
Tue 10:38:40 PM 39.8681 -85.4269 267° West 366 421 34,000  Level Indianapolis Center
Tue 10:39:41 PM 39.8603 -85.5581 266° West 362 417 34,000  Level Indianapolis Center
Tue 10:40:42 PM 39.8539 -85.6911 266° West 365 420 34,000  Level Indianapolis Center
Tue 10:41:44 PM 39.8458 -85.8275 266° West 373 429 34,000  Level Indianapolis Center
Tue 10:42:45 PM 39.8389 -85.9650 266° West 378 435 34,000  Level Indianapolis Center
Tue 10:43:46 PM 39.8308 -86.1017 266° West 378 435 34,000  Level Indianapolis Center
Tue 10:44:47 PM 39.8219 -86.2481 266° West 374 430 34,000  Level Indianapolis Center
Tue 10:45:49 PM 39.8139 -86.3825 266° West 373 429 34,000  Level Indianapolis Center
Tue 10:46:50 PM 39.8192 -86.5267 273° West 381 438 34,000  Level Indianapolis Center
Tue 10:47:51 PM 39.8214 -86.6642 271° West 379 436 34,000  Level Indianapolis Center
Tue 10:48:52 PM 39.8236 -86.8022 271° West 381 438 34,000  Level Indianapolis Center
Tue 10:49:53 PM 39.8264 -86.9408 272° West 382 440 34,000  Level Indianapolis Center
Tue 10:50:55 PM 39.8281 -87.0769 271° West 378 435 34,000  Level Indianapolis Center
Tue 10:51:56 PM 39.8303 -87.2108 271° West 368 423 34,000  Level Indianapolis Center
Tue 10:52:57 PM 39.8319 -87.3464 271° West 372 428 34,000  Level Indianapolis Center
Tue 10:53:58 PM 39.8336 -87.5042 271° West 372 428 34,000  Level Indianapolis Center
Tue 10:55:00 PM 39.8350 -87.6386 271° West 371 427 34,000  Level Indianapolis Center
Tue 10:56:01 PM 39.8369 -87.7764 271° West 376 433 34,000  Level Indianapolis Center
Tue 10:57:02 PM 39.8383 -87.9131 271° West 378 435 34,000  Level Indianapolis Center
Tue 10:58:03 PM 39.8394 -88.0503 271° West 377 434 34,000  Level Indianapolis Center
Tue 10:59:05 PM 39.8397 -88.1883 270° West 379 436 34,000  Level Indianapolis Center
Tue 10:59:27 PM 39.8392 -88.2183 269° West 380 437 34,000  Level Kansas City Center
Tue 11:00:26 PM 39.8400 -88.3556 270° West 379 436 34,000  Level Kansas City Center
Tue 11:01:27 PM 39.8408 -88.4908 271° West 376 433 34,000  Level Kansas City Center
Tue 11:02:28 PM 39.8414 -88.6292 270° West 379 436 34,000  Level Kansas City Center
Tue 11:03:28 PM 39.8428 -88.7664 271° West 381 438 34,000  Level Kansas City Center
Tue 11:04:28 PM 39.8417 -88.9308 270° West 379 436 34,000  Level Kansas City Center
Tue 11:05:32 PM 39.8419 -89.0689 270° West 380 437 34,000  Level Kansas City Center
Tue 11:06:33 PM 39.8411 -89.2044 270° West 377 434 34,000  Level Kansas City Center
Tue 11:07:33 PM 39.8417 -89.3408 270° West 375 432 34,000  Level Kansas City Center
Tue 11:08:34 PM 39.8406 -89.4778 269° West 376 433 34,000  Level Kansas City Center
Tue 11:09:34 PM 39.8400 -89.6139 270° West 376 433 34,000  Level Kansas City Center
Tue 11:10:35 PM 39.8392 -89.7489 270° West 375 432 34,000  Level Kansas City Center
Tue 11:11:37 PM 39.8419 -89.8814 272° West 372 428 34,000  Level Kansas City Center
Tue 11:12:38 PM 39.8433 -90.0158 271° West 370 426 34,000  Level Kansas City Center
Tue 11:13:39 PM 39.8444 -90.1492 271° West 369 425 34,000  Level Kansas City Center
Tue 11:14:39 PM 39.8456 -90.2817 271° West 366 421 34,000  Level Kansas City Center
Tue 11:15:39 PM 39.8467 -90.4156 271° West 368 423 34,000  Level Kansas City Center
Tue 11:16:40 PM 39.8469 -90.5483 270° West 367 422 34,000  Level Kansas City Center
Tue 11:17:41 PM 39.8475 -90.6783 270° West 363 418 34,000  Level Kansas City Center
Tue 11:18:44 PM 39.8478 -90.8094 270° West 361 415 34,000  Level Kansas City Center
Tue 11:19:45 PM 39.8478 -90.9414 270° West 363 418 34,000  Level Kansas City Center
Tue 11:20:46 PM 39.8486 -91.0939 270° West 359 413 34,000  Level Kansas City Center
Tue 11:21:47 PM 39.8478 -91.2239 270° West 360 414 34,000  Level Kansas City Center
Tue 11:22:47 PM 39.8436 -91.3500 268° West 355 409 34,000  Level Kansas City Center
Tue 11:23:49 PM 39.8333 -91.4781 264° West 355 409 34,000  Level Kansas City Center
Tue 11:24:48 PM 39.8239 -91.6042 264° West 355 409 34,000  Level Kansas City Center
Tue 11:25:51 PM 39.8150 -91.7297 265° West 352 405 34,000  Level Kansas City Center
Tue 11:26:51 PM 39.8056 -91.8556 264° West 351 404 34,000  Level Kansas City Center
Tue 11:27:53 PM 39.7953 -91.9811 264° West 350 403 34,000  Level Kansas City Center
Tue 11:28:54 PM 39.7864 -92.1056 265° West 350 403 34,000  Level Kansas City Center
Tue 11:29:55 PM 39.7764 -92.2311 264° West 350 403 34,000  Level Kansas City Center
Tue 11:30:55 PM 39.7664 -92.3561 264° West 349 402 34,000 -443 Level Kansas City Center
Tue 11:31:57 PM 39.7533 -92.5039 263° West 347 399 33,100 -942 Descending Kansas City Center
Tue 11:32:56 PM 39.7433 -92.6253 264° West 343 395 32,100 -1,000 Descending Kansas City Center
Tue 11:33:57 PM 39.7317 -92.7500 263° West 344 396 31,100 -960 Descending Kansas City Center
Tue 11:35:01 PM 39.7211 -92.8814 264° West 353 406 30,100 -1,016 Descending Kansas City Center
Tue 11:36:01 PM 39.7092 -93.0100 263° West 358 412 29,000 -1,041 Descending Kansas City Center
Tue 11:37:02 PM 39.6986 -93.1422 264° West 365 420 28,000 -984 Descending Kansas City Center
Tue 11:38:03 PM 39.6858 -93.2761 263° West 374 430 27,000 -1,328 Descending Kansas City Center
Tue 11:39:04 PM 39.6744 -93.4100 264° West 375 432 25,300 -1,800 Descending Kansas City Center
Tue 11:40:03 PM 39.6622 -93.5397 263° West 369 425 23,400 -1,900 Descending Kansas City Center
Tue 11:41:04 PM 39.6506 -93.6683 263° West 361 415 21,500 -1,951 Descending Kansas City Center
Tue 11:42:06 PM 39.6372 -93.8050 263° West 353 406 19,400 -1,887 Descending Kansas City Center
Tue 11:43:08 PM 39.6017 -93.9350 250° West 345 397 17,600 -1,805 Descending Kansas City Center
Tue 11:44:09 PM 39.5506 -94.0314 236° Southwest 339 390 15,700 -1,934 Descending Kansas City Center
Tue 11:45:09 PM 39.5017 -94.1306 237° Southwest 340 391 13,700 -1,950 Descending Kansas City Center
Tue 11:46:09 PM 39.4322 -94.2294 228° Southwest 337 388 11,800 -1,736 Descending Kansas City Center
Tue 11:47:10 PM 39.3633 -94.2811 210° Southwest 299 344 10,200 -1,770 Descending Kansas City Center
Tue 11:48:11 PM 39.3017 -94.3300 212° Southwest 276 318 8,200 -2,439 Descending Kansas City Center
Tue 11:49:13 PM 39.2614 -94.4236 241° Southwest 267 307 5,200 -2,903 Descending Kansas City Center

Login

Don't have an account? Register now (free) for customized features, flight alerts, and more!